createdAt,value
2023-02-19T00:05:55.421Z,1.70
2023-02-19T00:12:01.804Z,1.80
2023-02-19T00:17:57.037Z,1.70
2023-02-19T00:24:00.453Z,2.20
2023-02-19T00:30:04.106Z,2.00
2023-02-19T00:36:07.724Z,2.00
2023-02-19T00:42:11.610Z,1.90
2023-02-19T00:48:15.010Z,1.90
2023-02-19T00:54:18.471Z,2.00
2023-02-19T01:00:22.077Z,2.20
2023-02-19T01:06:25.476Z,1.70
2023-02-19T01:12:28.942Z,1.80
2023-02-19T01:18:32.529Z,1.70
2023-02-19T01:24:36.170Z,2.20
2023-02-19T01:30:39.529Z,2.10
2023-02-19T01:36:45.603Z,2.90
2023-02-19T01:42:51.722Z,2.80
2023-02-19T01:48:55.367Z,3.50
2023-02-19T01:54:58.885Z,3.30
2023-02-19T02:01:05.331Z,3.70
2023-02-19T02:07:11.544Z,2.80
2023-02-19T02:13:15.139Z,3.50
2023-02-19T02:19:18.613Z,3.10
2023-02-19T02:25:24.966Z,3.20
2023-02-19T02:31:40.594Z,3.60
2023-02-19T02:37:44.287Z,3.00
2023-02-19T02:43:47.887Z,3.60
2023-02-19T02:49:54.236Z,3.10
2023-02-19T02:55:58.048Z,3.40
2023-02-19T03:02:32.237Z,3.30
2023-02-19T03:08:42.373Z,3.30
2023-02-19T03:14:50.134Z,2.60
2023-02-19T03:20:53.619Z,3.10
2023-02-19T03:26:57.103Z,4.10
2023-02-19T03:33:09.549Z,4.00
2023-02-19T03:39:18.850Z,2.90
2023-02-19T03:45:31.657Z,2.50
2023-02-19T03:51:50.542Z,2.50
2023-02-19T03:57:57.019Z,2.40
2023-02-19T04:04:15.823Z,3.40
2023-02-19T04:10:22.387Z,2.40
2023-02-19T04:16:25.955Z,2.20
2023-02-19T04:22:29.325Z,2.30
2023-02-19T04:28:32.843Z,2.00
2023-02-19T04:34:36.226Z,2.20
2023-02-19T04:40:39.664Z,2.10
2023-02-19T04:46:43.301Z,1.90
2023-02-19T04:52:46.775Z,2.10
2023-02-19T04:58:50.380Z,2.20
2023-02-19T05:04:19.091Z,2.40
2023-02-19T05:10:14.724Z,2.80
2023-02-19T05:16:18.462Z,2.00
2023-02-19T05:22:21.917Z,1.60
2023-02-19T05:28:37.586Z,2.10
2023-02-19T05:34:41.110Z,1.80
2023-02-19T05:40:44.795Z,2.10
2023-02-19T05:46:48.364Z,2.90
2023-02-19T05:52:44.945Z,2.60
2023-02-19T05:58:48.376Z,2.30
2023-02-19T06:04:53.543Z,2.40
2023-02-19T06:10:57.030Z,2.10
2023-02-19T06:17:00.584Z,1.90
2023-02-19T06:23:04.001Z,1.50
2023-02-19T06:29:07.390Z,2.10
2023-02-19T06:35:11.015Z,2.00
2023-02-19T06:41:14.770Z,2.00
2023-02-19T06:47:18.353Z,2.00
2023-02-19T06:53:21.921Z,2.70
2023-02-19T06:59:25.144Z,2.60
2023-02-19T07:05:28.774Z,2.10
2023-02-19T07:11:37.987Z,2.50
2023-02-19T07:17:30.120Z,2.00
2023-02-19T07:23:33.597Z,2.30
2023-02-19T07:29:37.153Z,3.40
2023-02-19T07:35:40.541Z,2.20
2023-02-19T07:41:44.010Z,2.80
2023-02-19T07:47:47.512Z,2.40
2023-02-19T07:53:50.912Z,2.20
2023-02-19T07:59:54.602Z,2.40
2023-02-19T08:05:58.096Z,2.20
2023-02-19T08:12:02.711Z,2.50
2023-02-19T08:18:06.305Z,2.00
2023-02-19T08:24:09.984Z,1.60
2023-02-19T08:30:13.244Z,1.90
2023-02-19T08:36:16.819Z,2.20
2023-02-19T08:42:20.434Z,1.90
2023-02-19T08:48:23.873Z,1.80
2023-02-19T08:54:27.385Z,1.90
2023-02-19T09:00:30.220Z,1.40
2023-02-19T09:06:33.690Z,1.40
2023-02-19T09:12:37.137Z,1.90
2023-02-19T09:18:40.863Z,1.70
2023-02-19T09:24:44.403Z,1.40
2023-02-19T09:30:48.134Z,1.70
2023-02-19T09:36:51.723Z,1.30
2023-02-19T09:42:57.790Z,1.80
2023-02-19T09:49:01.520Z,1.20
2023-02-19T09:55:05.272Z,1.50
2023-02-19T10:01:23.947Z,1.30
2023-02-19T10:07:20.204Z,1.40
2023-02-19T10:13:26.386Z,1.10
2023-02-19T10:19:29.966Z,1.30
2023-02-19T10:25:33.506Z,1.70
2023-02-19T10:31:39.747Z,1.40
2023-02-19T10:37:43.144Z,1.20
2023-02-19T10:43:46.748Z,1.50
2023-02-19T10:49:51.592Z,1.10
2023-02-19T10:55:59.188Z,1.20
2023-02-19T11:02:17.922Z,0.90
2023-02-19T11:08:24.844Z,1.40
2023-02-19T11:14:31.149Z,1.50
2023-02-19T11:20:37.695Z,1.20
2023-02-19T11:26:34.466Z,1.00
2023-02-19T11:32:23.012Z,1.10
2023-02-19T11:38:28.518Z,1.20
2023-02-19T11:44:49.963Z,1.00
2023-02-19T11:50:51.645Z,1.20
2023-02-19T11:57:03.897Z,1.10
2023-02-19T12:03:19.594Z,1.10
2023-02-19T12:09:32.290Z,0.80
2023-02-19T12:15:38.861Z,0.90
2023-02-19T12:21:47.751Z,1.80
2023-02-19T12:27:56.941Z,1.20
2023-02-19T12:34:05.130Z,1.20
2023-02-19T12:40:20.736Z,1.10
2023-02-19T12:46:36.700Z,1.00
2023-02-19T12:52:55.344Z,1.30
2023-02-19T12:58:50.841Z,1.00
2023-02-19T13:05:01.245Z,1.00
2023-02-19T13:11:07.150Z,1.40
2023-02-19T13:17:09.773Z,0.80
2023-02-19T13:23:10.383Z,0.70
2023-02-19T13:29:05.418Z,0.90
2023-02-19T13:35:11.227Z,0.90
2023-02-19T13:41:13.701Z,1.60
2023-02-19T13:47:19.796Z,1.00
2023-02-19T13:53:29.205Z,0.90
2023-02-19T13:59:37.472Z,1.00
2023-02-19T14:05:39.762Z,1.00
2023-02-19T14:11:43.174Z,0.70
2023-02-19T14:17:40.050Z,0.80
2023-02-19T14:23:43.464Z,0.90
2023-02-19T14:29:47.900Z,0.90
2023-02-19T14:35:41.407Z,1.10
2023-02-19T14:41:26.274Z,0.90
2023-02-19T14:47:26.595Z,0.90
2023-02-19T14:53:33.127Z,1.20
2023-02-19T14:59:48.770Z,1.00
2023-02-19T15:05:55.302Z,1.00
2023-02-19T15:11:57.845Z,0.90
2023-02-19T15:18:07.618Z,0.70
2023-02-19T15:23:49.784Z,1.00
2023-02-19T15:29:59.686Z,0.80
2023-02-19T15:35:36.495Z,0.70
2023-02-19T15:41:34.573Z,0.60
2023-02-19T15:47:35.581Z,0.50
2023-02-19T15:53:43.849Z,0.70
2023-02-19T15:59:53.764Z,0.70
2023-02-19T16:05:24.135Z,0.70
2023-02-19T16:11:33.530Z,1.30
2023-02-19T16:17:27.930Z,0.90
2023-02-19T16:23:24.058Z,0.90
2023-02-19T16:29:27.810Z,1.10
2023-02-19T16:35:24.028Z,1.70
2023-02-19T16:41:25.988Z,1.10
2023-02-19T16:47:30.241Z,0.90
2023-02-19T16:53:33.741Z,1.80
2023-02-19T16:59:09.995Z,0.90
2023-02-19T17:05:13.583Z,0.90
2023-02-19T17:10:47.479Z,1.00
2023-02-19T17:17:02.754Z,1.20
2023-02-19T17:22:41.684Z,1.30
2023-02-19T17:28:10.693Z,1.60
2023-02-19T17:34:06.922Z,1.90
2023-02-19T17:39:53.351Z,1.90
2023-02-19T17:44:56.457Z,2.50
2023-02-19T17:51:00.428Z,3.50
2023-02-19T17:56:52.977Z,6.30
2023-02-19T18:07:47.039Z,4.60
2023-02-19T18:13:50.463Z,3.40
2023-02-19T18:19:53.838Z,3.90
2023-02-19T18:25:57.616Z,3.30
2023-02-19T18:32:01.120Z,2.60
2023-02-19T18:38:04.849Z,2.80
2023-02-19T18:44:06.732Z,2.60
2023-02-19T18:50:10.182Z,2.70
2023-02-19T18:55:58.985Z,3.30
2023-02-19T19:02:02.461Z,3.60
2023-02-19T19:08:05.896Z,3.60
2023-02-19T19:14:09.320Z,3.80
2023-02-19T19:20:12.708Z,3.00
2023-02-19T19:26:16.370Z,2.60
2023-02-19T19:32:12.433Z,3.90
2023-02-19T19:38:16.003Z,3.30
2023-02-19T19:44:19.453Z,3.70
2023-02-19T19:50:21.755Z,3.10
2023-02-19T19:56:07.810Z,3.20
2023-02-19T20:02:11.419Z,3.50
2023-02-19T20:08:14.814Z,3.70
2023-02-19T20:14:11.643Z,3.80
2023-02-19T20:20:15.033Z,3.30
2023-02-19T20:25:59.816Z,4.00
2023-02-19T20:31:56.586Z,2.20
2023-02-19T20:38:00.338Z,2.80
2023-02-19T20:44:03.759Z,2.90
2023-02-19T20:50:07.183Z,1.60
2023-02-19T20:56:10.813Z,2.00
2023-02-19T21:02:14.641Z,2.10
2023-02-19T21:08:18.258Z,2.10
2023-02-19T21:14:21.656Z,1.80
2023-02-19T21:20:25.499Z,1.70
2023-02-19T21:26:28.878Z,1.80
2023-02-19T21:32:38.584Z,2.30
2023-02-19T21:38:42.017Z,2.00
2023-02-19T21:44:45.629Z,2.10
2023-02-19T21:50:48.129Z,2.40
2023-02-19T21:56:50.217Z,2.30
2023-02-19T22:02:53.648Z,2.00
2023-02-19T22:08:57.467Z,2.10
2023-02-19T22:15:01.179Z,1.60
2023-02-19T22:21:04.876Z,2.00
2023-02-19T22:27:08.529Z,1.50
2023-02-19T22:33:11.910Z,1.50
2023-02-19T22:39:15.669Z,1.70
2023-02-19T22:45:19.040Z,1.80
2023-02-19T22:51:14.886Z,1.90
2023-02-19T22:57:18.381Z,1.50
2023-02-19T23:03:22.074Z,2.00
2023-02-19T23:09:25.503Z,1.70
2023-02-19T23:15:29.232Z,1.80
2023-02-19T23:21:26.073Z,1.90
2023-02-19T23:27:28.680Z,2.10
2023-02-19T23:33:32.210Z,1.80
2023-02-19T23:39:35.625Z,2.50
2023-02-19T23:45:39.032Z,2.50
2023-02-19T23:51:42.561Z,2.70
2023-02-19T23:57:45.988Z,2.60
